ETNT

Wittmundhafen Airport

Germany
METAR ETNT 171220Z 14005KT 2000 BR BKN001 03/03 Q1016 RED RED BECMG AMB
Observed Flight Rules
Dec-17 @ 12:20 UTC (32 minutes ago) Instrument Flight Rules
Wind Visibility Clouds Conditions
140° at 5 knots 1,996 meters
  • Broken at 100' AGL
  • Mist
Temperatures Readings
Current 3°C / 37°F
Dewpoint 3°C / 37°F
Humidity 100%
Altimeter 30" Hg
Pressure 1016 hPa
Elevation 12
METAR ETNT 171220Z 14005KT 2000 BR BKN001 03/03 Q1016 RED RED BECMG AMB
Observed Flight Rules
Dec-17 @ 12:20 UTC
(32 minutes ago)
LIFR
Wind Visibility
140° at 5 knots 1,996 meters
Clouds
  • Broken at 100' AGL
Conditions
  • Mist
Temperature Dewpoint
3°C / 37°F 3°C / 37°F
Humidity Altimeter Pressure
100% 30" Hg 1016 hPa